Júnior Lima

Olheiro-Chefe - Fluminense
19 Ago 2027
Quinta-feira
Processo

Personalidade

Adaptabilidade (15) Ambição (13) Controvérsia (6) Lealdade (18) Pressão (9) Profissionalismo (19) Espírito Esportivo (6) Temperamento (1)

Perfil

Estilo de Treinamento Democrático
Licença Nacional A
Determinação 10
Gestão de Pessoas 7
Motivação 7
Disciplina 8
Satisfação no Trabalho
84%
Fadiga
0%
Função Olheiro-Chefe
Salário 72.1K p/s
Contrato 14.03.2029

Desempenho

Comportamento Bom
Eficácia do Treinamento
47%
Desenvolvimento do Jogador
55%
Prevenção de Lesões
25%
Implementação Tática
55%

Eventos Recentes

Avaliou um jogador agora
Participou de uma reunião de recrutamento agora
Recomendou um alvo de transferência agora
Recomendou um alvo de transferência agora
Recomendou um alvo de transferência agora
Recomendou um alvo de transferência agora
Recomendou um alvo de transferência agora
Recomendou um alvo de transferência agora

Monitorando agora

242
Jogador Clube Status Habilidade Confiança Observado Última observação Último voto
Manu Koné AS Roma Ativo 169 / 172 40% 4 18.08.2027 -
Trevoh Chalobah Como Ativo 158 / 149 40% 1 18.08.2027 -
Aleš Matějů Spezia Ativo 129 / 119 40% 1 18.08.2027 -
Adrià Altimira Deportivo La Coruña Ativo 140 / 133 40% 2 16.08.2027 -
Nicolò Rovella Lazio Ativo 157 / 166 40% 2 16.08.2027 -
Nuno Tavares Lazio Ativo 148 / 163 40% 1 16.08.2027 -
Fabio Gerli Modena Ativo 132 / 115 40% 1 14.08.2027 -
Daniel Tonoli Modena Ativo 132 / 117 40% 1 14.08.2027 -
Carlos Augusto Inter Ativo 153 / 142 40% 1 13.08.2027 -
Federico Dimarco Inter Ativo 170 / 165 40% 1 13.08.2027 -
Giorgio Scalvini Atalanta Ativo 159 / 170 40% 1 13.08.2027 -
Matteo Pessina Monza Ativo 136 / 149 40% 1 12.08.2027 -
Samuele Angori Pisa Ativo 137 / 132 40% 1 12.08.2027 -
Ethan Galbraith Swansea City Ativo 138 / 128 40% 11 08.08.2027 -
Tyler Adams Bournemouth Ativo 160 / 155 40% 5 08.08.2027 -
Hector Ramirez Newcastle United Ativo 152 / 165 40% 6 08.08.2027 -
Quinten Timber Crystal Palace Ativo 150 / 160 40% 2 07.08.2027 -
Milan van Ewijk Mansfield Town Ativo 142 / 128 40% 5 07.08.2027 -
Unai Vencedor Burgos Ativo 141 / 124 40% 1 07.08.2027 -
Harry Clarke Preston Ativo 138 / 138 40% 8 06.08.2027 -
Curtis Jones Inter Ativo 162 / 154 40% 5 06.08.2027 -
Guille Rosas Gijón Ativo 144 / 160 40% 6 06.08.2027 -
Azor Matusiwa Ipswich Town Ativo 141 / 150 40% 4 04.08.2027 -
Florentino Luís Ipswich Town Ativo 146 / 157 40% 9 03.08.2027 -
Hamza Choudhury Leicester City Ativo 130 / 114 40% 2 03.08.2027 -
Kristoffer Lund Birmingham Ativo 133 / 138 40% 3 02.08.2027 -
Mats Wieffer Brighton Ativo 156 / 145 40% 7 02.08.2027 -
Callum Doyle Wrexham Ativo 132 / 131 40% 7 31.07.2027 -
Saša Lukić Ipswich Town Ativo 144 / 148 40% 7 31.07.2027 -
Ross McCrorie Bristol City Ativo 137 / 137 40% 1 30.07.2027 -
Darlin Yongwa Norwich City Ativo 123 / 121 40% 1 30.07.2027 -
Max Bird Birmingham Ativo 133 / 143 40% 8 27.07.2027 -
Sven Botman Newcastle United Ativo 167 / 160 40% 6 26.07.2027 -
Imrân Louza Watford Ativo 138 / 146 40% 2 26.07.2027 -
Boubacar Kamara Aston Villa Ativo 162 / 149 40% 5 25.07.2027 -
Adrien Truffert Bournemouth Ativo 155 / 149 40% 5 25.07.2027 -
Nordi Mukiele Sunderland Ativo 152 / 160 40% 5 25.07.2027 -
Adam Wharton Crystal Palace Ativo 154 / 172 40% 4 24.07.2027 -
Dara O'Shea Ipswich Town Ativo 145 / 139 40% 4 23.07.2027 -
Pedro Porro Tottenham Ativo 149 / 138 40% 2 23.07.2027 -
Paik Seung-Ho Birmingham Ativo 137 / 119 40% 1 23.07.2027 -
Noah Sadiki Sunderland Ativo 153 / 157 40% 5 22.07.2027 -
Femi Seriki Sheffield United Ativo 137 / 136 40% 1 22.07.2027 -
Derry Murkin Derby County Ativo 133 / 146 40% 4 21.07.2027 -
Michael Baidoo Plymouth Argyle Ativo 131 / 127 40% 2 21.07.2027 -
Igor Burnley Ativo 137 / 149 40% 3 20.07.2027 -
Callum Brittain Middlesbrough Ativo 136 / 125 40% 8 16.07.2027 -
Amadou Onana Aston Villa Ativo 157 / 160 40% 8 15.07.2027 -
Soungoutou Magassa West Ham United Ativo 140 / 127 40% 4 14.07.2027 -
Óscar Mingueza Crystal Palace Ativo 159 / 144 40% 3 14.07.2027 -
Teden Mengi Luton Town Ativo 129 / 123 40% 1 14.07.2027 -
Welington Southampton Ativo 137 / 143 40% 11 11.07.2027 -
Toby Collyer West Bromwich Albion Ativo 140 / 153 40% 4 11.07.2027 -
Ryan Sessegnon Fulham Ativo 146 / 152 40% 3 10.07.2027 -
Leif Davis Ipswich Town Ativo 138 / 153 40% 3 10.07.2027 -
Nicolas Madsen Queens Park Rangers Ativo 138 / 116 40% 2 09.07.2027 -
Anel Ahmedhodžić Burnley Ativo 141 / 150 40% 2 08.07.2027 -
Christos Mouzakitis Hull City Ativo 133 / 131 40% 2 07.07.2027 -
Ben Sheaf Wrexham Ativo 129 / 140 40% 1 07.07.2027 -
Kenny Tete Fulham Ativo 140 / 137 40% 7 05.07.2027 -
Benjamin White Arsenal Ativo 158 / 142 40% 6 05.07.2027 -
Alfie Doughty Millwall Ativo 130 / 145 40% 1 05.07.2027 -
Flynn Downes Southampton Ativo 136 / 129 40% 1 02.07.2027 -
Jan Paul van Hecke Tottenham Ativo 156 / 173 40% 4 01.07.2027 Observar
Aidan Morris Middlesbrough Ativo 129 / 122 40% 1 01.07.2027 -
Shea Charles Southampton Ativo 139 / 148 40% 6 30.06.2027 -
Luke McNally Bristol City Ativo 131 / 135 40% 3 29.06.2027 -
Anton Stach Leeds United Ativo 152 / 151 40% 2 22.06.2027 -
Nathan Collins Brentford Ativo 150 / 148 40% 1 22.06.2027 -
Jake O'Brien Everton Ativo 145 / 164 40% 1 13.06.2027 -
Kyle Walker-Peters West Ham United Ativo 140 / 129 40% 3 08.06.2027 -
Micky van de Ven Tottenham Ativo 163 / 165 40% 1 05.06.2027 -
Negueba Mirassol Ativo 130 / 133 79% 1 03.06.2027 Aprovar
Xaver Schlager Nottingham Forest Ativo 151 / 159 40% 4 02.06.2027 -
Bitello SC Freiburg Negociando 135 / 135 68% 1 01.06.2027 Aprovar
Ademir Bahia Ativo 126 / 125 79% 1 01.06.2027 Aprovar
Michele Cerofolini Bari Ativo 136 / 128 40% 1 31.05.2027 -
Juanlu Bournemouth Ativo 146 / 151 40% 1 30.05.2027 -
Conor Gallagher Tottenham Ativo 153 / 159 40% 1 25.05.2027 Mais informações
Alessandro Buongiorno Sassuolo Ativo 151 / 172 40% 1 19.05.2027 -
Adam Randell Bristol City Ativo 124 / 120 40% 1 19.05.2027 -
Manuel Locatelli Juventus Ativo 148 / 154 40% 1 13.05.2027 -
Japhet Tanganga Sheffield United Ativo 138 / 114 40% 1 09.05.2027 -
Pierre Kalulu Juventus Ativo 158 / 164 40% 2 05.05.2027 -
Leon Goretzka Aston Villa Ativo 160 / 144 40% 3 28.04.2027 -
Víctor Gómez Braga Ativo 141 / 149 40% 12 24.04.2027 -
Dinis Pinto Moreirense Ativo 134 / 119 40% 11 21.04.2027 -
Javi Sánchez Arouca Ativo 133 / 136 40% 6 21.04.2027 -
João Palhinha Benfica Ativo 147 / 157 40% 5 19.04.2027 -
Jordan Holsgrove Estoril Praia Ativo 132 / 129 40% 8 19.04.2027 -
Luís Esteves Atlas Ativo 130 / 125 40% 8 17.04.2027 -
Iván Fresneda Sporting CP Ativo 139 / 140 40% 7 16.04.2027 -
Hwang In-Beom Porto Ativo 151 / 125 40% 9 14.04.2027 -
Renato Sanches AVS Ativo 126 / 122 40% 9 13.04.2027 -
Bright Arrey-Mbi Braga Ativo 127 / 135 40% 4 12.04.2027 -
João Simões Sporting CP Ativo 136 / 123 40% 6 12.04.2027 -
Toti Wolverhampton Ativo 137 / 136 40% 1 12.04.2027 -
Rodrigo Pinheiro Famalicao Ativo 134 / 147 40% 9 10.04.2027 -
Francisco Moura Lusitânia Lourosa Ativo 134 / 127 40% 6 07.04.2027 -
Zeno Debast Sporting CP Ativo 138 / 153 40% 1 07.04.2027 -
Mathias De Amorim Famalicao Ativo 131 / 150 40% 1 01.04.2027 -
Sikou Niakaté Braga Ativo 131 / 126 40% 5 31.03.2027 -
Jesús Angulo Tigres Ativo 135 / 136 40% 4 31.03.2027 -
Alberto Costa Porto Ativo 149 / 145 40% 7 26.03.2027 -
Kevin Álvarez Club America Ativo 134 / 120 40% 2 16.03.2027 -
Alan Varela Porto Ativo 138 / 161 40% 1 09.03.2027 -
Gerardo Arteaga Monterrey Ativo 132 / 141 40% 3 07.03.2027 -
Joaquim Tigres Ativo 133 / 139 40% 4 06.03.2027 -
Nahuel Tenaglia Tigres Ativo 132 / 135 40% 1 28.02.2027 -
Fidel Ambríz Monterrey Ativo 132 / 135 40% 1 28.02.2027 -
Gonçalo Inácio Sporting CP Ativo 143 / 157 40% 7 27.02.2027 -
José Hurtado Bragantino Ativo 134 / 131 40% 3 26.02.2027 -
Gonzalo Piovi Cruz Azul Ativo 130 / 142 40% 5 26.02.2027 -
Andrew Robertson Tottenham Ativo 156 / 165 40% 1 26.02.2027 -
Ousmane Diomande Nottingham Forest Ativo 150 / 151 40% 1 25.02.2027 -
John Stones Inter Ativo 158 / 147 40% 1 25.02.2027 -
James Garner Everton Ativo 154 / 160 40% 1 23.02.2027 -
Ryan Christie Bournemouth Ativo 148 / 127 40% 2 22.02.2027 -
Jan Bednarek Porto Ativo 146 / 159 40% 2 21.02.2027 -
Nicolás Fernández Mercau Shakhtar Ativo 139 / 126 40% 2 21.02.2027 -
Richard Ledezma Guadalajara Ativo 140 / 129 40% 1 21.02.2027 -
Jesús Orozco Chiquete Cruz Azul Ativo 127 / 138 40% 2 19.02.2027 -
Kevin Vazquez Cruz Azul Ativo 131 / 143 40% 1 17.02.2027 -
Adonis Frías Atlas Ativo 127 / 127 40% 1 15.02.2027 -
Rubén Duarte Legia Ativo 124 / 127 40% 1 12.02.2027 -
Ilay Camara Anderlecht Ativo 132 / 128 40% 1 07.02.2027 -
Lukáš Červ Viktoria Plzen Ativo 134 / 124 40% 1 06.02.2027 -
Eduardo Quaresma Sporting CP Ativo 139 / 159 40% 1 02.02.2027 -
Matheus Bidu Corinthians Ativo 133 / 141 40% 3 29.01.2027 -
Sander Berge Fulham Ativo 147 / 160 40% 1 29.01.2027 -
Matheuzinho Corinthians Ativo 130 / 124 40% 1 22.01.2027 -
Pablo Rosario Porto Ativo 146 / 120 40% 3 18.01.2027 -
Tomás Araújo Benfica Ativo 150 / 161 40% 2 18.01.2027 -
Marlon Grêmio Ativo 125 / 113 40% 2 17.01.2027 -
Fabrício Bruno Cruzeiro Ativo 136 / 142 40% 1 17.01.2027 -
William Cruzeiro Ativo 139 / 127 40% 2 14.01.2027 -
Lucas Veríssimo Santos Ativo 134 / 140 40% 2 11.01.2027 -
Renan Lodi Atlético Mineiro Ativo 139 / 125 40% 1 06.01.2027 -
Gustaf Lagerbielke Braga Ativo 132 / 124 40% 1 04.01.2027 -
Lucas Romero Cruzeiro Ativo 129 / 135 40% 1 04.01.2027 -
Reinildo Sunderland Ativo 141 / 156 40% 2 02.01.2027 -
Vitinho Botafogo Ativo 140 / 123 40% 4 31.12.2026 -
Christian Krasnodar Ativo 135 / 131 40% 2 24.12.2026 -
Sabino Sport Recife Ativo 126 / 119 40% 1 23.12.2026 -
Santiago Sosa Vasco da Gama Ativo 131 / 125 40% 1 17.12.2026 -
Alexandro Bernabei Internacional Ativo 136 / 122 40% 1 16.12.2026 -
Marcos Antonio Sport Recife Ativo 143 / 143 40% 1 15.12.2026 -
Ángelo Preciado Atlético Mineiro Ativo 131 / 124 40% 1 15.12.2026 -
Cauan Barros Vasco da Gama Ativo 124 / 144 40% 1 07.12.2026 -
Jonathan Calleri Sport Recife Ativo 135 / 120 79% 1 06.12.2026 Aprovar
Stanislav Agkatsev Sunderland Negociando 132 / 133 66% 1 01.12.2026 Aprovar
Konstantin Tyukavin Inter Negociando 132 / 133 66% 1 01.12.2026 Aprovar
Kostantis Tzolakis Hull City Ativo 134 / 159 40% 9 30.11.2026 -
Léo Jardim Vasco da Gama Ativo 141 / 122 40% 5 29.11.2026 -
Simone Scuffet Pisa Ativo 126 / 140 40% 1 29.11.2026 -
Mads Hermansen West Ham United Ativo 133 / 139 40% 6 28.11.2026 -
Jean America de Cali Ativo 126 / 127 40% 5 28.11.2026 -
Barış Alper Yılmaz Galatasaray Ativo 148 / 143 40% 2 27.11.2026 -
Facundo Cambeses Racing Club Ativo 132 / 114 40% 10 27.11.2026 -
Ivan Toney Al-Ahli Ativo 143 / 130 40% 2 27.11.2026 -
Jonathan Fischer FC Metz Ativo 135 / 131 40% 2 27.11.2026 -
Yehvann Diouf OGC Nice Ativo 138 / 137 40% 2 23.11.2026 -
Dean Henderson Crystal Palace Ativo 152 / 151 40% 9 22.11.2026 -
Gabriel Jesus Barcelona Ativo 163 / 154 40% 2 22.11.2026 -
Steven Bergwijn Al-Ittihad Ativo 142 / 126 40% 1 22.11.2026 -
Mateo Pellegrino Fiorentina Ativo 137 / 122 40% 1 22.11.2026 -
Fernando Tapia Club America Ativo 129 / 128 40% 1 22.11.2026 -
Caoimhin Kelleher Brentford Ativo 143 / 162 40% 10 21.11.2026 -
Erick Reyes Toluca Ativo 142 / 148 40% 5 20.11.2026 -
Christian Walton Ipswich Town Ativo 130 / 121 40% 6 18.11.2026 -
Soufiane Rahimi Guadalajara Ativo 141 / 131 40% 2 18.11.2026 -
Ignacio de Arruabarrena Arouca Ativo 121 / 135 40% 2 15.11.2026 -
Julián Quiñones Lokomotiv Moscow Ativo 142 / 161 40% 3 14.11.2026 -
Anatolii Trubin Juventus Ativo 152 / 163 40% 5 14.11.2026 -
Luka Jović AEK Ativo 136 / 148 40% 1 14.11.2026 -
Joaquín Panichelli Le Havre AC Ativo 150 / 154 40% 2 12.11.2026 -
Adnan Courtois KV Oostende Ativo 133 / 139 40% 1 12.11.2026 -
Dmytro Riznyk Cruz Azul Ativo 142 / 129 40% 1 12.11.2026 -
Bernardo Fontes Braga Ativo 120 / 114 40% 1 12.11.2026 -
Arijanet Murić Sassuolo Ativo 140 / 118 40% 3 10.11.2026 Observar
Cezary Miszta Rio Ave Ativo 125 / 144 40% 3 08.11.2026 -
Matěj Kovář PSV Ativo 138 / 150 40% 2 08.11.2026 -
Geny Sporting CP Ativo 141 / 145 40% 2 06.11.2026 Mais informações
Carlos Miguel Palmeiras Ativo 135 / 120 40% 3 06.11.2026 -
Heorhii Sudakov Benfica Ativo 143 / 128 40% 1 05.11.2026 -
Oussama Idrissi Pachuca Ativo 140 / 147 40% 1 05.11.2026 -
Robin Roefs Sunderland Ativo 135 / 150 40% 5 04.11.2026 -
Tomás Marchiori Vélez Ativo 130 / 123 40% 6 04.11.2026 -
Carlos Moreno Pachuca Ativo 128 / 124 40% 7 02.11.2026 -
Mike Maignan AC Milan Ativo 163 / 164 40% 2 01.11.2026 -
Tomoki Hayakawa Kashima Antlers Ativo 144 / 147 40% 6 31.10.2026 -
Hugo Souza Corinthians Ativo 139 / 121 40% 8 31.10.2026 -
Andreas Pereira Palmeiras Ativo 147 / 136 40% 1 31.10.2026 -
Gabriel Batista Botafogo Ativo 123 / 117 40% 4 30.10.2026 -
Ángel Correa River Plate Ativo 146 / 155 40% 3 29.10.2026 -
Santiago Castro AS Roma Ativo 152 / 166 40% 1 29.10.2026 -
Uğurcan Çakır Braga Ativo 141 / 124 40% 1 26.10.2026 -
Keisuke Osako Sanfrecce Hiroshima Ativo 135 / 154 40% 2 25.10.2026 -
Randal Kolo Muani Juventus Ativo 149 / 150 40% 1 25.10.2026 -
Youssef En-Nesyri Al-Ittihad Ativo 136 / 119 40% 1 25.10.2026 -
Romelu Castagne KV Oostende Ativo 140 / 139 40% 1 25.10.2026 -
Dodi Lukébakio Benfica Ativo 145 / 129 40% 2 24.10.2026 -
Esteban Lepaul Stade Rennais Ativo 133 / 142 40% 1 24.10.2026 -
Zack Steffen Spartak Moscow Ativo 127 / 132 40% 4 20.10.2026 -
Jacob Widell Zetterström Derby County Ativo 134 / 132 40% 1 19.10.2026 -
Matt Freese New York City Ativo 133 / 128 40% 3 17.10.2026 -
Alexander Nübel Besiktas Ativo 141 / 123 40% 2 17.10.2026 -
Raúl Rangel Sporting CP Ativo 129 / 128 40% 1 16.10.2026 -
Ryosuke Kojima Kashiwa Reysol Ativo 132 / 109 40% 1 15.10.2026 -
Lazar Carević Famalicao Ativo 124 / 126 40% 4 11.10.2026 -
Gonzalo Crettaz NEC Ativo 126 / 110 40% 1 06.10.2026 -
Radek Vítek Middlesbrough Ativo 128 / 117 40% 4 03.10.2026 -
Hany Mukhtar Spezia Ativo 132 / 146 40% 1 02.10.2026 -
Rubén Blanco Yokohama F. Marinos Ativo 128 / 108 40% 1 28.09.2026 -
Jindřich Staněk KAA Gent Ativo 136 / 147 40% 1 27.09.2026 -
Predrag Rajković Racing Genk Ativo 135 / 151 40% 1 23.09.2026 -
Justin Bijlow Genoa Ativo 138 / 138 40% 2 22.09.2026 -
Alex Meret Napoli Ativo 144 / 149 40% 2 17.09.2026 -
Borja Sainz Fiorentina Ativo 145 / 127 40% 2 16.09.2026 -
Michael Cooper Sheffield United Ativo 120 / 144 40% 1 16.09.2026 -
Fredrik Aursnes Benfica Ativo 153 / 143 40% 1 16.09.2026 -
Nikola Vasilj Al-Diriyah Ativo 143 / 156 40% 2 13.09.2026 -
Kepa Arrizabalaga Arsenal Ativo 149 / 134 40% 3 13.09.2026 -
Musa Barrow Al-Khaleej Ativo 143 / 123 40% 1 13.09.2026 -
Roberto Fernández Braga Ativo 134 / 122 40% 1 13.09.2026 -
James Trafford Leeds United Ativo 133 / 137 40% 3 08.09.2026 -
Donyell Malen AS Roma Ativo 150 / 131 40% 1 08.09.2026 -
Alex Iwobi Fulham Ativo 140 / 140 40% 1 04.09.2026 -
Dominik Greif Olympique Lyonnais Ativo 132 / 151 40% 1 31.08.2026 -
Matvey Safonov Paris Saint-Germain Ativo 157 / 156 40% 1 29.08.2026 -
Kasper Dolberg Ajax Ativo 142 / 127 40% 1 27.08.2026 -
Kerem Aktürkoğlu Fenerbahce Ativo 139 / 160 40% 1 20.08.2026 -
Giacomo Raspadori Atalanta Ativo 142 / 134 40% 1 14.08.2026 -
Rodrigo Garro Corinthians Ativo 136 / 130 40% 1 13.08.2026 -
Maduka Okoye Udinese Ativo 133 / 133 40% 1 13.08.2026 -
Martin Jedlička Banik Ostrava Ativo 122 / 143 40% 1 12.08.2026 -
Michael Zetterer Leeds United Ativo 128 / 145 40% 2 07.08.2026 -
Antonio Sivera Alavés Ativo 140 / 145 40% 2 05.08.2026 -
Iván Martín Racing Santander Ativo 145 / 131 40% 1 05.08.2026 -
Gorka Guruzeta Athletic Bilbao Ativo 146 / 134 40% 1 05.08.2026 -
Santi Comesaña Villarreal Ativo 146 / 162 40% 1 05.08.2026 -
Augusto Batalla Rayo Vallecano Ativo 150 / 135 40% 1 02.08.2026 -